Time;durP1;ratioP1;P1;durP2;ratioP2;P2;SDS_P1;SDS_P2;PMS_P1;PMS_P2;Temp;Humidity;BMP_temperature;BMP_pressure;BME280_temperature;BME280_humidity;BME280_pressure;Samples;Min_cycle;Max_cycle;Signal;HPM_P1;HPM_P2
2023/10/13 00:02:01;;;;;;;1999.90;999.90;;;15.00;99.90;;;;;;5114360;28;20032;-74
2023/10/13 00:04:28;;;;;;;1999.90;999.90;;;15.00;99.90;;;;;;5115150;27;20062;-74
2023/10/13 00:06:56;;;;;;;1999.90;999.90;;;15.00;99.90;;;;;;5115106;28;20043;-74
2023/10/13 00:09:25;;;;;;;1999.90;999.90;;;14.80;99.90;;;;;;5115368;28;20030;-75
2023/10/13 00:11:55;;;;;;;1999.90;999.90;;;14.80;99.90;;;;;;5115223;28;20051;-74
2023/10/13 00:14:21;;;;;;;1999.90;999.90;;;14.70;99.90;;;;;;5093311;28;20086;-74
2023/10/13 00:17:03;;;;;;;1999.90;999.90;;;14.60;99.90;;;;;;5093172;28;20039;-74
2023/10/13 00:19:37;;;;;;;1999.90;999.90;;;14.40;99.90;;;;;;5095004;28;20043;-74
2023/10/13 00:22:10;;;;;;;1999.90;999.90;;;14.40;99.90;;;;;;5112947;28;20501;-74
2023/10/13 00:24:42;;;;;;;1999.90;999.90;;;14.30;99.90;;;;;;5115240;28;20044;-74
2023/10/13 00:27:41;;;;;;;1999.90;999.90;;;14.20;99.90;;;;;;5114676;27;20032;-74
2023/10/13 00:30:32;;;;;;;1999.90;999.90;;;14.20;99.90;;;;;;5115295;27;20488;-74
2023/10/13 00:32:59;;;;;;;1999.90;999.90;;;14.20;99.90;;;;;;5113497;28;20032;-75
2023/10/13 00:35:36;;;;;;;1999.90;999.90;;;14.10;99.90;;;;;;5113512;28;20040;-74
2023/10/13 00:38:14;;;;;;;1999.90;999.90;;;14.00;99.90;;;;;;5114871;28;20040;-74
2023/10/13 00:44:03;;;;;;;1999.90;999.90;;;14.10;99.90;;;;;;5115658;27;20043;-74
2023/10/13 00:48:32;;;;;;;1999.90;999.90;;;14.00;99.90;;;;;;5115391;28;20036;-74
2023/10/13 00:51:03;;;;;;;1999.90;999.90;;;14.00;99.90;;;;;;5117199;28;20067;-74
2023/10/13 00:53:33;;;;;;;1999.90;999.90;;;13.90;99.90;;;;;;5118511;27;20036;-74
2023/10/13 00:56:06;;;;;;;1999.90;999.90;;;13.90;99.90;;;;;;5116635;28;20040;-74
2023/10/13 00:58:35;;;;;;;1999.90;999.90;;;14.00;99.90;;;;;;5116678;28;20040;-74
2023/10/13 01:01:21;;;;;;;1999.90;999.90;;;13.80;99.90;;;;;;5118057;28;20517;-74
2023/10/13 01:03:59;;;;;;;1999.90;999.90;;;13.90;99.90;;;;;;5118460;28;20511;-74
2023/10/13 01:06:26;;;;;;;1999.90;999.90;;;14.00;99.90;;;;;;5118307;28;20032;-74
2023/10/13 01:09:19;;;;;;;1999.90;999.90;;;13.80;99.90;;;;;;5118415;27;20111;-74
2023/10/13 01:11:52;;;;;;;1999.90;999.90;;;13.80;99.90;;;;;;5118110;27;20032;-74
2023/10/13 01:14:20;;;;;;;1999.90;999.90;;;13.60;99.90;;;;;;5116770;28;20028;-74
2023/10/13 01:16:46;;;;;;;1999.90;999.90;;;13.50;99.90;;;;;;5117762;28;20070;-74
2023/10/13 01:19:27;;;;;;;1999.90;999.90;;;13.40;99.90;;;;;;5116479;28;20093;-74
2023/10/13 01:22:02;;;;;;;1999.90;999.90;;;13.50;99.90;;;;;;5116434;28;20082;-74
2023/10/13 01:24:31;;;;;;;1999.90;999.90;;;13.40;99.90;;;;;;5118055;27;20040;-74
2023/10/13 01:26:57;;;;;;;1999.90;999.90;;;13.30;99.90;;;;;;5116480;28;20036;-74
2023/10/13 01:29:28;;;;;;;1999.90;999.90;;;13.30;99.90;;;;;;5117742;27;20081;-74
2023/10/13 01:31:54;;;;;;;1999.90;999.90;;;13.30;99.90;;;;;;5116340;28;20039;-74
2023/10/13 01:34:23;;;;;;;1999.90;999.90;;;13.20;99.90;;;;;;5118210;28;20063;-74
2023/10/13 01:36:53;;;;;;;1999.90;999.90;;;13.10;99.90;;;;;;5117561;28;20107;-74
2023/10/13 01:39:28;;;;;;;1999.90;999.90;;;13.10;99.90;;;;;;5116109;28;20036;-74
2023/10/13 01:41:57;;;;;;;1999.90;999.90;;;13.10;99.90;;;;;;5117440;28;20441;-74
2023/10/13 01:44:30;;;;;;;1999.90;999.90;;;13.00;99.90;;;;;;5117903;28;20040;-74
2023/10/13 01:46:59;;;;;;;1999.90;999.90;;;13.00;99.90;;;;;;5117626;28;20028;-74
2023/10/13 01:49:27;;;;;;;1999.90;999.90;;;13.10;99.90;;;;;;5117539;28;20456;-74
2023/10/13 01:51:53;;;;;;;1999.90;999.90;;;13.00;99.90;;;;;;5117423;28;20060;-74
2023/10/13 01:54:21;;;;;;;1999.90;999.90;;;13.00;99.90;;;;;;5116801;27;20043;-74
2023/10/13 01:56:48;;;;;;;1999.90;999.90;;;13.00;99.90;;;;;;5117468;27;20028;-74
2023/10/13 01:59:15;;;;;;;1999.90;999.90;;;12.90;99.90;;;;;;5117377;27;20060;-73
2023/10/13 02:01:41;;;;;;;1999.90;999.90;;;12.90;99.90;;;;;;5116913;27;20493;-74
2023/10/13 02:04:07;;;;;;;1999.90;999.90;;;12.90;99.90;;;;;;5117163;27;20068;-74
2023/10/13 02:06:36;;;;;;;1999.90;999.90;;;12.90;99.90;;;;;;5115566;28;20039;-74
2023/10/13 02:09:27;;;;;;;1999.90;999.90;;;12.90;99.90;;;;;;5117263;28;20493;-74
2023/10/13 02:11:54;;;;;;;1999.90;999.90;;;12.90;99.90;;;;;;5117251;28;20028;-74
2023/10/13 02:14:22;;;;;;;1999.90;999.90;;;12.80;99.90;;;;;;5117105;28;20513;-73
2023/10/13 02:16:50;;;;;;;1999.90;999.90;;;12.80;99.90;;;;;;5117066;28;20035;-74
2023/10/13 02:19:19;;;;;;;1999.90;999.90;;;12.90;99.90;;;;;;5116937;28;20040;-74
2023/10/13 02:21:45;;;;;;;1999.90;999.90;;;12.80;99.90;;;;;;5116882;27;20119;-74
2023/10/13 02:24:17;;;;;;;1999.90;999.90;;;12.80;99.90;;;;;;5116986;27;20119;-74
2023/10/13 02:26:44;;;;;;;1999.90;999.90;;;12.80;99.90;;;;;;5115434;28;20473;-74
2023/10/13 02:29:13;;;;;;;1999.90;999.90;;;12.70;99.90;;;;;;5115585;28;20036;-74
2023/10/13 02:31:40;;;;;;;1999.90;999.90;;;12.70;99.90;;;;;;5116549;28;20028;-74
2023/10/13 02:34:12;;;;;;;1999.90;999.90;;;12.60;99.90;;;;;;5116852;27;20047;-74
2023/10/13 02:36:49;;;;;;;1999.90;999.90;;;12.60;99.90;;;;;;5116911;28;20033;-74
2023/10/13 02:39:16;;;;;;;1999.90;999.90;;;12.50;99.90;;;;;;5115451;28;20040;-74
2023/10/13 02:41:47;;;;;;;1999.90;999.90;;;12.40;99.90;;;;;;5116747;28;20036;-74
2023/10/13 02:44:26;;;;;;;1999.90;999.90;;;12.40;99.90;;;;;;5116888;28;20036;-74
2023/10/13 02:46:55;;;;;;;1999.90;999.90;;;12.40;99.90;;;;;;5116374;27;20024;-74
2023/10/13 02:49:37;;;;;;;1999.90;999.90;;;12.30;99.90;;;;;;5116532;27;20032;-74
2023/10/13 02:52:07;;;;;;;1999.90;999.90;;;12.30;99.90;;;;;;5116722;27;20052;-74
2023/10/13 02:54:39;;;;;;;1999.90;999.90;;;12.30;99.90;;;;;;5116655;27;20055;-74
2023/10/13 02:57:05;;;;;;;1999.90;999.90;;;12.30;99.90;;;;;;5116355;28;20028;-74
2023/10/13 02:59:38;;;;;;;1999.90;999.90;;;12.30;99.90;;;;;;5116663;27;20082;-74
2023/10/13 03:02:17;;;;;;;1999.90;999.90;;;12.30;99.90;;;;;;5115682;27;20035;-74
2023/10/13 03:04:48;;;;;;;1999.90;999.90;;;12.30;99.90;;;;;;5115015;28;20036;-74
2023/10/13 03:07:23;;;;;;;1999.90;999.90;;;12.30;99.90;;;;;;5115127;27;20036;-74
2023/10/13 03:09:50;;;;;;;1999.90;999.90;;;12.30;99.90;;;;;;5114900;28;20086;-74
2023/10/13 03:12:17;;;;;;;1999.90;999.90;;;12.40;99.90;;;;;;5116247;28;20499;-74
2023/10/13 03:14:47;;;;;;;1999.90;999.90;;;12.40;99.90;;;;;;5116582;28;20032;-74
2023/10/13 03:17:22;;;;;;;1999.90;999.90;;;12.50;99.90;;;;;;5114347;28;20043;-74
2023/10/13 03:19:51;;;;;;;1999.90;999.90;;;12.60;99.90;;;;;;5116587;27;20032;-74
2023/10/13 03:22:18;;;;;;;1999.90;999.90;;;12.70;99.90;;;;;;5116071;27;20024;-74
2023/10/13 03:24:47;;;;;;;1999.90;999.90;;;12.70;99.90;;;;;;5116223;28;20550;-74
2023/10/13 03:27:16;;;;;;;1999.90;999.90;;;12.80;99.90;;;;;;5115567;27;20036;-74
2023/10/13 03:29:43;;;;;;;1999.90;999.90;;;12.90;99.90;;;;;;5116177;27;20485;-74
2023/10/13 03:32:15;;;;;;;1999.90;999.90;;;13.00;99.90;;;;;;5115914;27;20082;-74
2023/10/13 03:34:54;;;;;;;1999.90;999.90;;;13.00;99.90;;;;;;5116219;27;20036;-74
2023/10/13 03:37:37;;;;;;;1999.90;999.90;;;13.10;99.90;;;;;;5115653;28;20032;-74
2023/10/13 03:43:05;;;;;;;1999.90;999.90;;;13.20;99.90;;;;;;5094782;28;20036;-74
2023/10/13 03:45:43;;;;;;;1999.90;999.90;;;13.20;99.90;;;;;;5095544;28;20027;-74
2023/10/13 03:51:03;;;;;;;1999.90;999.90;;;13.10;99.90;;;;;;5112788;27;20033;-74
2023/10/13 03:53:36;;;;;;;1999.90;999.90;;;13.00;99.90;;;;;;5115834;27;20028;-74
2023/10/13 03:56:08;;;;;;;1999.90;999.90;;;12.90;99.90;;;;;;5114051;28;20051;-74
2023/10/13 03:58:36;;;;;;;1999.90;999.90;;;12.80;99.90;;;;;;5114032;28;20040;-74
2023/10/13 04:01:03;;;;;;;1999.90;999.90;;;12.70;99.90;;;;;;5115333;28;20024;-74
2023/10/13 04:03:35;;;;;;;1999.90;999.90;;;12.60;99.90;;;;;;5114663;28;20044;-74
2023/10/13 04:06:06;;;;;;;1999.90;999.90;;;12.60;99.90;;;;;;5113819;28;20063;-74
2023/10/13 04:08:47;;;;;;;1999.90;999.90;;;12.50;99.90;;;;;;5115635;28;20086;-74
2023/10/13 04:16:36;;;;;;;1999.90;999.90;;;12.30;99.90;;;;;;5112118;27;20036;-73
2023/10/13 04:21:39;;;;;;;1999.90;999.90;;;12.20;99.90;;;;;;5115283;28;20036;-74
2023/10/13 04:29:55;;;;;;;1999.90;999.90;;;12.20;99.90;;;;;;5115493;28;20032;-74
2023/10/13 04:32:38;;;;;;;1999.90;999.90;;;12.10;99.90;;;;;;5115251;28;20024;-74
2023/10/13 04:35:18;;;;;;;1999.90;999.90;;;12.10;99.90;;;;;;5115325;28;20028;-74
2023/10/13 04:37:50;;;;;;;1999.90;999.90;;;12.10;99.90;;;;;;5115024;28;20816;-74
2023/10/13 04:40:19;;;;;;;1999.90;999.90;;;12.00;99.90;;;;;;5115224;28;20391;-74
2023/10/13 04:42:49;;;;;;;1999.90;999.90;;;12.00;99.90;;;;;;5114636;28;20063;-74
2023/10/13 04:47:58;;;;;;;1999.90;999.90;;;12.10;99.90;;;;;;5111757;28;20036;-74
2023/10/13 04:50:34;;;;;;;1999.90;999.90;;;12.00;99.90;;;;;;5114810;28;20047;-74
2023/10/13 04:53:03;;;;;;;1999.90;999.90;;;12.00;99.90;;;;;;5113210;28;20043;-74
2023/10/13 05:01:39;;;;;;;1999.90;999.90;;;12.00;99.90;;;;;;5112737;28;20565;-74
2023/10/13 05:04:22;;;;;;;1999.90;999.90;;;12.00;99.90;;;;;;5114439;28;20501;-74
2023/10/13 05:45:40;;;;;;;1999.90;999.90;;;12.30;99.90;;;;;;5117674;28;20529;-74
2023/10/13 05:48:13;;;;;;;1999.90;999.90;;;12.60;99.90;;;;;;5117688;28;20798;-74
2023/10/13 05:51:32;;;;;;;1999.90;999.90;;;12.70;99.90;;;;;;5115642;28;20078;-74
2023/10/13 06:29:19;;;;;;;1999.90;999.90;;;14.40;99.90;;;;;;5117258;28;20044;-77
2023/10/13 06:31:45;;;;;;;1999.90;999.90;;;14.50;99.90;;;;;;5114653;28;20115;-75
2023/10/13 06:34:15;;;;;;;1999.90;999.90;;;14.60;99.90;;;;;;5116849;28;20028;-74
2023/10/13 06:36:41;;;;;;;1999.90;999.90;;;15.00;99.90;;;;;;5116681;28;20809;-76
2023/10/13 06:39:35;;;;;;;1999.90;999.90;;;14.90;99.90;;;;;;5115198;28;20098;-77
2023/10/13 06:42:02;;;;;;;1999.90;999.90;;;15.00;99.90;;;;;;5115527;27;20467;-76
2023/10/13 06:44:32;;;;;;;1999.90;999.90;;;15.30;99.90;;;;;;5116779;28;20032;-76
2023/10/13 06:46:58;;;;;;;1999.90;999.90;;;15.50;99.90;;;;;;5116427;28;20515;-76
2023/10/13 06:49:23;;;;;;;1999.90;999.90;;;15.60;99.90;;;;;;5114553;28;20050;-76
2023/10/13 06:51:49;;;;;;;1999.90;999.90;;;15.70;99.90;;;;;;5116644;28;20473;-76
2023/10/13 06:54:21;;;;;;;1999.90;999.90;;;15.70;99.90;;;;;;5116959;27;20531;-76
2023/10/13 06:56:51;;;;;;;1999.90;999.90;;;15.70;99.90;;;;;;5116622;28;20534;-76
2023/10/13 06:59:16;;;;;;;1999.90;999.90;;;15.70;99.90;;;;;;5116322;28;20076;-77
2023/10/13 07:01:44;;;;;;;1999.90;999.90;;;15.50;99.90;;;;;;5114435;28;20067;-76
2023/10/13 07:04:14;;;;;;;1999.90;999.90;;;15.50;99.90;;;;;;5114926;28;20044;-76
2023/10/13 07:06:48;;;;;;;1999.90;999.90;;;15.50;99.90;;;;;;5116252;28;20024;-76
2023/10/13 07:12:26;;;;;;;1999.90;999.90;;;15.70;99.90;;;;;;5116275;27;20036;-76
2023/10/13 07:14:51;;;;;;;1999.90;999.90;;;15.70;99.90;;;;;;5115309;28;20573;-76
2023/10/13 07:17:23;;;;;;;1999.90;999.90;;;15.80;99.90;;;;;;5101536;28;20085;-76
2023/10/13 07:19:53;;;;;;;1999.90;999.90;;;15.90;99.90;;;;;;5098587;28;20097;-77
2023/10/13 07:22:19;;;;;;;1999.90;999.90;;;16.00;99.90;;;;;;5114685;28;20039;-77
2023/10/13 07:24:49;;;;;;;1999.90;999.90;;;16.20;99.90;;;;;;5116765;27;20043;-76
2023/10/13 07:27:25;;;;;;;1999.90;999.90;;;16.40;99.90;;;;;;5095947;28;20032;-77
2023/10/13 07:30:13;;;;;;;1999.90;999.90;;;16.60;99.90;;;;;;5114260;28;20539;-77
2023/10/13 07:32:45;;;;;;;1999.90;999.90;;;16.70;99.90;;;;;;5116834;28;20036;-77
2023/10/13 07:35:17;;;;;;;1999.90;999.90;;;16.90;99.90;;;;;;5116928;28;20083;-77
2023/10/13 07:37:43;;;;;;;1999.90;999.90;;;17.00;99.90;;;;;;5116323;27;20070;-78
2023/10/13 07:40:59;;;;;;;1999.90;999.90;;;17.20;99.90;;;;;;5114941;28;20071;-78
2023/10/13 07:43:09;;;;;;;1999.90;999.90;;;17.40;99.90;;;;;;5100152;28;20488;-76
2023/10/13 07:45:37;;;;;;;1999.90;999.90;;;17.60;99.90;;;;;;5116643;27;20103;-79
2023/10/13 07:48:12;;;;;;;1999.90;999.90;;;17.90;99.90;;;;;;5117076;27;20069;-78
2023/10/13 07:50:41;;;;;;;1999.90;999.90;;;17.90;99.90;;;;;;5114274;28;20032;-79
2023/10/13 07:53:20;;;;;;;1999.90;999.90;;;18.00;99.90;;;;;;5112016;28;20452;-78
2023/10/13 07:55:53;;;;;;;1999.90;999.90;;;18.20;99.90;;;;;;5114886;27;20082;-78
2023/10/13 07:58:19;;;;;;;1999.90;999.90;;;18.30;99.90;;;;;;5114235;28;20119;-78
2023/10/13 08:08:34;;;;;;;1999.90;999.90;;;18.80;99.90;;;;;;5115565;28;20697;-78
2023/10/13 08:11:08;;;;;;;1999.90;999.90;;;18.60;99.90;;;;;;5112960;28;20024;-78
2023/10/13 08:13:37;;;;;;;1999.90;999.90;;;18.80;99.90;;;;;;5115316;28;20835;-79
2023/10/13 08:16:09;;;;;;;1999.90;999.90;;;18.90;99.90;;;;;;5114481;28;20367;-82
2023/10/13 08:18:36;;;;;;;1999.90;999.90;;;19.00;99.90;;;;;;5114043;28;20067;-78
2023/10/13 08:21:04;;;;;;;1999.90;999.90;;;19.10;99.90;;;;;;5115339;27;20032;-78
2023/10/13 08:23:58;;;;;;;1999.90;999.90;;;19.20;99.90;;;;;;5115439;28;20043;-78
2023/10/13 08:48:14;;;;;;;1999.90;999.90;;;19.90;99.90;;;;;;5112032;27;20024;-78
2023/10/13 08:53:31;;;;;;;1999.90;999.90;;;20.20;99.90;;;;;;5114896;27;20111;-77
2023/10/13 08:59:22;;;;;;;1999.90;999.90;;;20.50;99.70;;;;;;5112466;28;20044;-77
2023/10/13 09:12:35;;;;;;;1999.90;999.90;;;21.10;97.40;;;;;;5120758;27;20140;-76
2023/10/13 09:15:30;;;;;;;1999.90;999.90;;;21.20;97.00;;;;;;5117182;28;20090;-75
2023/10/13 09:17:52;;;;;;;1999.90;999.90;;;21.30;96.40;;;;;;5117453;27;20101;-76
2023/10/13 09:23:23;;;;;;;1999.90;999.90;;;21.60;95.70;;;;;;5116568;27;20036;-76
2023/10/13 09:26:08;;;;;;;1999.90;999.90;;;21.80;95.50;;;;;;5115424;28;20497;-76
2023/10/13 09:28:36;;;;;;;1999.90;999.90;;;21.80;95.30;;;;;;5116549;28;20036;-75
2023/10/13 09:31:02;;;;;;;1999.90;999.90;;;21.90;95.50;;;;;;5117695;27;20028;-76
2023/10/13 09:33:39;;;;;;;1999.90;999.90;;;21.90;94.90;;;;;;5116609;28;20115;-75
2023/10/13 09:36:07;;;;;;;1999.90;999.90;;;21.90;94.60;;;;;;5117915;28;20052;-76
2023/10/13 09:38:40;;;;;;;1999.90;999.90;;;22.00;94.10;;;;;;5112030;28;20066;-76
2023/10/13 09:41:18;;;;;;;1999.90;999.90;;;22.20;94.70;;;;;;5103044;28;20472;-76
2023/10/13 09:43:45;;;;;;;1999.90;999.90;;;22.30;94.20;;;;;;5104159;28;20040;-76
2023/10/13 09:46:18;;;;;;;1999.90;999.90;;;22.40;94.10;;;;;;5096762;28;20173;-76
2023/10/13 09:48:46;;;;;;;1999.90;999.90;;;22.50;93.20;;;;;;5095449;28;20041;-76
2023/10/13 09:51:14;;;;;;;1999.90;999.90;;;22.60;93.40;;;;;;5095316;28;20028;-76
2023/10/13 09:53:44;;;;;;;1999.90;999.90;;;22.60;93.10;;;;;;5096606;28;20460;-76
2023/10/13 09:56:23;;;;;;;1999.90;999.90;;;22.70;92.60;;;;;;5096422;28;20089;-76
2023/10/13 09:58:56;;;;;;;1999.90;999.90;;;23.00;92.20;;;;;;5096963;28;20040;-76
2023/10/13 10:01:37;;;;;;;1999.90;999.90;;;23.00;91.80;;;;;;5096562;28;20474;-76
2023/10/13 10:04:17;;;;;;;1999.90;999.90;;;23.20;91.20;;;;;;5120194;22;20433;-76
2023/10/13 10:06:56;;;;;;;1999.90;999.90;;;23.50;90.70;;;;;;5095595;28;20041;-76
2023/10/13 10:09:43;;;;;;;1999.90;999.90;;;23.50;91.00;;;;;;5096546;28;20027;-76
2023/10/13 10:12:47;;;;;;;1999.90;999.90;;;23.50;91.50;;;;;;5096280;28;20474;-76
2023/10/13 10:15:43;;;;;;;1999.90;999.90;;;23.60;90.40;;;;;;5096192;28;20408;-76
2023/10/13 10:18:22;;;;;;;1999.90;999.90;;;23.70;90.40;;;;;;5094314;28;20045;-73
2023/10/13 10:20:51;;;;;;;1999.90;999.90;;;23.90;90.30;;;;;;5096196;28;20033;-73
2023/10/13 10:23:36;;;;;;;1999.90;999.90;;;24.00;88.90;;;;;;5096170;28;20116;-73
2023/10/13 10:26:13;;;;;;;1999.90;999.90;;;24.10;89.70;;;;;;5094390;28;20083;-73
2023/10/13 10:28:41;;;;;;;1999.90;999.90;;;24.20;88.00;;;;;;5096143;28;20122;-74
2023/10/13 10:31:16;;;;;;;1999.90;999.90;;;24.30;87.10;;;;;;5095544;28;20028;-74
2023/10/13 10:33:55;;;;;;;1999.90;999.90;;;24.30;84.90;;;;;;5097803;28;20032;-82
2023/10/13 10:36:29;;;;;;;1999.90;999.90;;;24.40;85.00;;;;;;5096063;28;20402;-74
2023/10/13 10:38:59;;;;;;;1999.90;999.90;;;24.50;85.80;;;;;;5095744;28;20095;-74
2023/10/13 10:44:37;;;;;;;1999.90;999.90;;;24.70;85.50;;;;;;5094375;28;20481;-74
2023/10/13 10:47:30;;;;;;;1999.90;999.90;;;24.70;83.00;;;;;;5095635;28;20032;-74
2023/10/13 10:50:00;;;;;;;1999.90;999.90;;;24.80;84.40;;;;;;5094442;28;20478;-74
2023/10/13 10:52:27;;;;;;;1999.90;999.90;;;24.90;83.70;;;;;;5095474;28;20576;-74
2023/10/13 10:54:59;;;;;;;1999.90;999.90;;;25.00;84.60;;;;;;5095343;28;20044;-74
2023/10/13 10:57:28;;;;;;;1999.90;999.90;;;25.10;82.30;;;;;;5093679;28;20028;-74
2023/10/13 11:00:09;;;;;;;1999.90;999.90;;;25.10;81.70;;;;;;5095408;28;20037;-74
2023/10/13 11:02:35;;;;;;;1999.90;999.90;;;25.20;83.70;;;;;;5093256;28;20067;-75
2023/10/13 11:05:01;;;;;;;1999.90;999.90;;;25.10;80.90;;;;;;5094258;28;20470;-74
2023/10/13 11:07:28;;;;;;;1999.90;999.90;;;25.20;81.10;;;;;;5095814;28;20063;-74
2023/10/13 11:10:06;;;;;;;1999.90;999.90;;;25.30;82.10;;;;;;5095952;28;20032;-74
2023/10/13 11:12:33;;;;;;;1999.90;999.90;;;25.40;80.50;;;;;;5094046;28;20473;-74
2023/10/13 11:15:15;;;;;;;1999.90;999.90;;;25.60;81.10;;;;;;5096296;28;20516;-75
2023/10/13 11:17:58;;;;;;;1999.90;999.90;;;25.70;81.00;;;;;;5095878;28;20090;-75
2023/10/13 11:20:34;;;;;;;1999.90;999.90;;;25.90;79.20;;;;;;5096092;28;20077;-75
2023/10/13 11:23:04;;;;;;;1999.90;999.90;;;26.00;78.00;;;;;;5094432;28;20035;-74
2023/10/13 11:25:34;;;;;;;1999.90;999.90;;;26.10;79.50;;;;;;5095691;28;20024;-74
2023/10/13 11:28:29;;;;;;;1999.90;999.90;;;26.20;78.10;;;;;;5094737;28;20035;-74
2023/10/13 11:30:58;;;;;;;1999.90;999.90;;;26.30;78.70;;;;;;5095946;28;20031;-75
2023/10/13 11:33:35;;;;;;;1999.90;999.90;;;26.30;75.40;;;;;;5095680;28;20028;-75
2023/10/13 11:36:03;;;;;;;1999.90;999.90;;;26.30;76.90;;;;;;5095938;28;20410;-75
2023/10/13 11:41:14;;;;;;;1999.90;999.90;;;26.50;75.20;;;;;;5094989;28;20473;-76
2023/10/13 11:46:15;;;;;;;1999.90;999.90;;;26.80;74.60;;;;;;5095616;28;20371;-74
2023/10/13 11:48:42;;;;;;;1999.90;999.90;;;26.80;73.50;;;;;;5101166;28;20036;-76
2023/10/13 11:51:32;;;;;;;1999.90;999.90;;;27.00;71.90;;;;;;5098914;28;20032;-76
2023/10/13 11:53:58;;;;;;;1999.90;999.90;;;27.10;74.30;;;;;;5086570;28;20045;-75
2023/10/13 11:56:24;;;;;;;1999.90;999.90;;;27.20;73.20;;;;;;5094076;28;20021;-75
2023/10/13 11:58:50;;;;;;;1999.90;999.90;;;27.20;73.40;;;;;;5095746;28;20044;-76
2023/10/13 12:01:20;;;;;;;1999.90;999.90;;;27.30;71.20;;;;;;5096907;28;20033;-74
2023/10/13 12:11:46;;;;;;;1999.90;999.90;;;27.60;72.70;;;;;;5093355;28;20028;-76
2023/10/13 12:14:21;;;;;;;1999.90;999.90;;;27.70;72.20;;;;;;5096569;28;20035;-74
2023/10/13 12:16:51;;;;;;;1999.90;999.90;;;27.80;71.50;;;;;;5094047;28;20028;-79
2023/10/13 12:19:23;;;;;;;1999.90;999.90;;;27.90;71.20;;;;;;5095234;28;20488;-75
2023/10/13 12:21:56;;;;;;;1999.90;999.90;;;28.00;72.20;;;;;;5084067;28;20037;-76
2023/10/13 12:24:39;;;;;;;1999.90;999.90;;;28.20;70.00;;;;;;5093196;28;20037;-75
2023/10/13 12:27:19;;;;;;;1999.90;999.90;;;28.30;68.50;;;;;;5093470;28;20083;-75
2023/10/13 12:29:51;;;;;;;1999.90;999.90;;;28.30;68.90;;;;;;5094893;28;20065;-75
2023/10/13 12:32:30;;;;;;;1999.90;999.90;;;28.20;68.10;;;;;;5094784;28;20033;-76
2023/10/13 12:54:13;;;;;;;1999.90;999.90;;;28.30;66.10;;;;;;5097742;28;20465;-74
2023/10/13 12:56:41;;;;;;;1999.90;999.90;;;28.50;62.10;;;;;;5097974;28;20037;-74
2023/10/13 12:59:09;;;;;;;1999.90;999.90;;;28.70;64.10;;;;;;5098003;28;20032;-75
2023/10/13 13:01:34;;;;;;;1999.90;999.90;;;28.80;62.20;;;;;;5097925;28;20410;-74
2023/10/13 13:04:03;;;;;;;1999.90;999.90;;;28.90;60.30;;;;;;5096051;28;20044;-75
2023/10/13 13:06:32;;;;;;;1999.90;999.90;;;29.00;58.70;;;;;;5097485;28;20020;-75
2023/10/13 13:08:59;;;;;;;1999.90;999.90;;;29.20;58.70;;;;;;5097772;28;20063;-75
2023/10/13 13:11:25;;;;;;;1999.90;999.90;;;29.30;61.10;;;;;;5097721;28;20033;-75
2023/10/13 13:13:51;;;;;;;1999.90;999.90;;;29.40;61.70;;;;;;5097390;28;20036;-75
2023/10/13 13:16:18;;;;;;;1999.90;999.90;;;29.50;61.20;;;;;;5097666;28;20025;-75
2023/10/13 13:18:47;;;;;;;1999.90;999.90;;;29.60;60.00;;;;;;5097577;28;20033;-75
2023/10/13 13:21:19;;;;;;;1999.90;999.90;;;29.50;57.50;;;;;;5097515;28;20039;-75
2023/10/13 13:23:54;;;;;;;1999.90;999.90;;;29.20;56.90;;;;;;5097612;28;20043;-74
2023/10/13 13:26:20;;;;;;;1999.90;999.90;;;29.00;56.00;;;;;;5091014;28;20198;-75
2023/10/13 13:28:50;;;;;;;1999.90;999.90;;;29.00;56.70;;;;;;5080563;28;20111;-74
2023/10/13 13:31:19;;;;;;;1999.90;999.90;;;29.00;56.80;;;;;;5088124;28;20024;-73
2023/10/13 13:33:44;;;;;;;1999.90;999.90;;;28.90;56.20;;;;;;5098173;28;20067;-79
2023/10/13 13:36:15;;;;;;;1999.90;999.90;;;28.80;55.80;;;;;;5090602;28;20371;-74
2023/10/13 13:38:41;;;;;;;1999.90;999.90;;;28.80;56.40;;;;;;5093631;28;20037;-74
2023/10/13 13:41:16;;;;;;;1999.90;999.90;;;28.70;56.70;;;;;;5090936;28;20029;-74
2023/10/13 13:43:54;;;;;;;1999.90;999.90;;;28.70;56.80;;;;;;5082251;28;20036;-73
2023/10/13 13:46:32;;;;;;;1999.90;999.90;;;28.70;57.60;;;;;;5090832;28;20583;-74
2023/10/13 13:49:00;;;;;;;1999.90;999.90;;;28.60;55.70;;;;;;5087687;28;20636;-74
2023/10/13 13:51:31;;;;;;;1999.90;999.90;;;28.60;58.90;;;;;;5082095;28;20470;-74
2023/10/13 13:53:58;;;;;;;1999.90;999.90;;;28.40;58.50;;;;;;5084562;28;20072;-74
2023/10/13 13:56:28;;;;;;;1999.90;999.90;;;28.30;57.90;;;;;;5084234;28;20029;-75
2023/10/13 13:58:55;;;;;;;1999.90;999.90;;;28.30;56.30;;;;;;5090933;28;20037;-75
2023/10/13 14:01:21;;;;;;;1999.90;999.90;;;28.20;57.50;;;;;;5086650;28;20524;-74
2023/10/13 14:03:51;;;;;;;1999.90;999.90;;;28.10;57.10;;;;;;5085684;28;20061;-78
2023/10/13 14:06:26;;;;;;;1999.90;999.90;;;28.10;55.90;;;;;;5085572;28;20068;-75
2023/10/13 14:08:56;;;;;;;1999.90;999.90;;;28.00;56.60;;;;;;5086095;28;20036;-75
2023/10/13 14:14:28;;;;;;;1999.90;999.90;;;28.00;56.90;;;;;;5096615;28;20028;-75
2023/10/13 14:17:02;;;;;;;1999.90;999.90;;;28.00;57.90;;;;;;5096877;28;20024;-75
2023/10/13 14:19:28;;;;;;;1999.90;999.90;;;28.10;58.20;;;;;;5096992;28;20033;-77
2023/10/13 14:21:57;;;;;;;1999.90;999.90;;;28.00;58.70;;;;;;5096511;28;20021;-75
2023/10/13 14:24:27;;;;;;;1999.90;999.90;;;28.00;58.00;;;;;;5096501;28;20572;-75
2023/10/13 14:27:35;;;;;;;1999.90;999.90;;;28.00;58.00;;;;;;5096326;28;20028;-75
2023/10/13 14:29:54;;;;;;;1999.90;999.90;;;28.00;58.50;;;;;;5094160;28;20123;-75
2023/10/13 14:32:24;;;;;;;1999.90;999.90;;;28.00;59.30;;;;;;5095409;28;20123;-75
2023/10/13 14:34:54;;;;;;;1999.90;999.90;;;27.90;57.90;;;;;;5095995;28;20387;-75
2023/10/13 14:37:26;;;;;;;1999.90;999.90;;;27.90;58.20;;;;;;5095156;28;20036;-75
2023/10/13 14:39:59;;;;;;;1999.90;999.90;;;27.90;57.60;;;;;;5095148;28;20051;-76
2023/10/13 14:42:26;;;;;;;1999.90;999.90;;;27.80;57.70;;;;;;5094792;28;20087;-76
2023/10/13 14:44:58;;;;;;;1999.90;999.90;;;27.80;57.60;;;;;;5089064;28;20051;-76
2023/10/13 14:47:24;;;;;;;1999.90;999.90;;;27.80;57.80;;;;;;5090904;28;20075;-75
2023/10/13 14:49:59;;;;;;;1999.90;999.90;;;27.80;56.80;;;;;;5077654;28;20495;-75
2023/10/13 14:52:25;;;;;;;1999.90;999.90;;;27.80;57.70;;;;;;5096473;28;20133;-75
2023/10/13 14:54:57;;;;;;;1999.90;999.90;;;27.70;57.90;;;;;;5096404;28;20032;-75
2023/10/13 14:57:25;;;;;;;1999.90;999.90;;;27.70;56.70;;;;;;5096220;28;20482;-75
2023/10/13 14:59:54;;;;;;;1999.90;999.90;;;27.70;57.30;;;;;;5096135;28;20124;-76
2023/10/13 15:02:21;;;;;;;1999.90;999.90;;;27.60;56.10;;;;;;5095203;28;20032;-76
2023/10/13 15:04:50;;;;;;;1999.90;999.90;;;27.60;57.40;;;;;;5091691;28;20494;-77
2023/10/13 15:07:22;;;;;;;1999.90;999.90;;;28.60;57.00;;;;;;5076130;28;20056;-76
2023/10/13 15:09:47;;;;;;;1999.90;999.90;;;30.00;54.30;;;;;;5086330;28;20051;-76
2023/10/13 15:12:13;;;;;;;1999.90;999.90;;;30.90;52.70;;;;;;5097049;28;20067;-76
2023/10/13 15:14:42;;;;;;;1999.90;999.90;;;30.90;52.60;;;;;;5098460;28;20086;-76
2023/10/13 15:17:09;;;;;;;1999.90;999.90;;;30.40;52.50;;;;;;5096853;28;20086;-76
2023/10/13 15:19:43;;;;;;;1999.90;999.90;;;30.10;54.50;;;;;;5093881;28;20055;-76
2023/10/13 15:22:21;;;;;;;1999.90;999.90;;;30.00;54.10;;;;;;5094534;28;20506;-76
2023/10/13 15:24:59;;;;;;;1999.90;999.90;;;29.90;54.10;;;;;;5084934;28;20029;-75
2023/10/13 15:27:28;;;;;;;1999.90;999.90;;;29.90;55.20;;;;;;5075284;28;20025;-77
2023/10/13 15:29:54;;;;;;;1999.90;999.90;;;30.00;55.80;;;;;;5081874;28;20036;-77
2023/10/13 15:35:05;;;;;;;1999.90;999.90;;;29.20;56.30;;;;;;5088409;28;20040;-76
2023/10/13 15:37:30;;;;;;;1999.90;999.90;;;28.50;56.80;;;;;;5083905;28;20020;-81
2023/10/13 15:39:57;;;;;;;1999.90;999.90;;;28.00;58.90;;;;;;5083433;28;20445;-78
2023/10/13 15:42:23;;;;;;;1999.90;999.90;;;27.40;60.40;;;;;;5095262;28;20140;-82
2023/10/13 15:44:49;;;;;;;1999.90;999.90;;;26.90;65.20;;;;;;5075755;28;20537;-81